sensor_id;sensor_type;location;lat;lon;timestamp;pressure;altitude;pressure_sealevel;temperature;humidity
51123;BME280;37162;41.724;13.346;2022-11-20T00:00:07;95755.78;;;17.77;65.18
51123;BME280;37162;41.724;13.346;2022-11-20T00:02:33;95753.38;;;17.76;65.36
51123;BME280;37162;41.724;13.346;2022-11-20T00:04:58;95761.97;;;17.78;65.15
51123;BME280;37162;41.724;13.346;2022-11-20T00:07:23;95764.41;;;17.74;65.20
51123;BME280;37162;41.724;13.346;2022-11-20T00:09:49;95763.84;;;17.77;65.18
51123;BME280;37162;41.724;13.346;2022-11-20T00:12:14;95749.84;;;17.70;65.41
51123;BME280;37162;41.724;13.346;2022-11-20T00:14:40;95754.69;;;17.73;65.21
51123;BME280;37162;41.724;13.346;2022-11-20T00:17:06;95756.59;;;17.78;65.22
51123;BME280;37162;41.724;13.346;2022-11-20T00:19:34;95753.03;;;17.67;65.30
51123;BME280;37162;41.724;13.346;2022-11-20T00:21:59;95753.88;;;17.73;65.14
51123;BME280;37162;41.724;13.346;2022-11-20T00:24:25;95746.06;;;17.71;65.04
51123;BME280;37162;41.724;13.346;2022-11-20T00:26:50;95710.78;;;17.47;65.15
51123;BME280;37162;41.724;13.346;2022-11-20T00:29:16;95749.91;;;17.75;65.32
51123;BME280;37162;41.724;13.346;2022-11-20T00:31:41;95743.44;;;17.76;64.97
51123;BME280;37162;41.724;13.346;2022-11-20T00:34:06;95735.06;;;17.73;65.15
51123;BME280;37162;41.724;13.346;2022-11-20T00:36:33;95724.31;;;17.68;64.92
51123;BME280;37162;41.724;13.346;2022-11-20T00:38:59;95722.16;;;17.65;65.02
51123;BME280;37162;41.724;13.346;2022-11-20T00:41:26;95737.22;;;17.71;64.94
51123;BME280;37162;41.724;13.346;2022-11-20T00:43:53;95739.63;;;17.72;64.85
51123;BME280;37162;41.724;13.346;2022-11-20T00:46:21;95718.38;;;17.60;64.99
51123;BME280;37162;41.724;13.346;2022-11-20T00:48:47;95726.44;;;17.66;65.05
51123;BME280;37162;41.724;13.346;2022-11-20T00:51:14;95705.72;;;17.56;64.93
51123;BME280;37162;41.724;13.346;2022-11-20T00:53:41;95737.75;;;17.73;65.01
51123;BME280;37162;41.724;13.346;2022-11-20T00:56:09;95739.41;;;17.74;64.75
51123;BME280;37162;41.724;13.346;2022-11-20T00:58:37;95744.78;;;17.74;64.88
51123;BME280;37162;41.724;13.346;2022-11-20T01:03:38;95748.28;;;17.74;65.13
51123;BME280;37162;41.724;13.346;2022-11-20T01:06:15;95744.53;;;17.75;65.19
51123;BME280;37162;41.724;13.346;2022-11-20T01:08:41;95747.22;;;17.75;65.02
51123;BME280;37162;41.724;13.346;2022-11-20T01:11:19;95745.31;;;17.76;65.02
51123;BME280;37162;41.724;13.346;2022-11-20T01:13:46;95729.44;;;17.69;64.87
51123;BME280;37162;41.724;13.346;2022-11-20T01:18:41;95741.84;;;17.75;64.72
51123;BME280;37162;41.724;13.346;2022-11-20T01:21:09;95743.97;;;17.73;64.76
51123;BME280;37162;41.724;13.346;2022-11-20T01:23:38;95748.81;;;17.76;64.91
51123;BME280;37162;41.724;13.346;2022-11-20T01:26:09;95743.44;;;17.76;64.90
51123;BME280;37162;41.724;13.346;2022-11-20T01:28:35;95746.13;;;17.76;64.83
51123;BME280;37162;41.724;13.346;2022-11-20T01:31:01;95748.81;;;17.76;64.75
51123;BME280;37162;41.724;13.346;2022-11-20T01:33:35;95724.56;;;17.61;64.61
51123;BME280;37162;41.724;13.346;2022-11-20T01:36:04;95716.19;;;17.52;64.71
51123;BME280;37162;41.724;13.346;2022-11-20T01:38:31;95742.59;;;17.71;64.69
51123;BME280;37162;41.724;13.346;2022-11-20T01:40:56;95751.78;;;17.75;64.85
51123;BME280;37162;41.724;13.346;2022-11-20T01:43:22;95711.09;;;17.51;64.84
51123;BME280;37162;41.724;13.346;2022-11-20T01:48:23;95745.31;;;17.76;64.89
51123;BME280;37162;41.724;13.346;2022-11-20T01:50:51;95750.97;;;17.74;64.65
51123;BME280;37162;41.724;13.346;2022-11-20T01:53:22;95750.66;;;17.71;64.87
51123;BME280;37162;41.724;13.346;2022-11-20T01:55:51;95740.97;;;17.70;64.89
51123;BME280;37162;41.724;13.346;2022-11-20T01:58:20;95746.66;;;17.73;64.68
51123;BME280;37162;41.724;13.346;2022-11-20T02:00:47;95736.41;;;17.65;64.86
51123;BME280;37162;41.724;13.346;2022-11-20T02:03:15;95746.06;;;17.71;64.74
51123;BME280;37162;41.724;13.346;2022-11-20T02:05:48;95744.53;;;17.75;64.62
51123;BME280;37162;41.724;13.346;2022-11-20T02:08:17;95735.59;;;17.70;64.48
51123;BME280;37162;41.724;13.346;2022-11-20T02:10:42;95733.44;;;17.72;64.59
51123;BME280;37162;41.724;13.346;2022-11-20T02:13:08;95718.09;;;17.62;64.43
51123;BME280;37162;41.724;13.346;2022-11-20T02:15:52;95737.50;;;17.69;64.56
51123;BME280;37162;41.724;13.346;2022-11-20T02:18:19;95749.91;;;17.75;64.45
51123;BME280;37162;41.724;13.346;2022-11-20T02:20:48;95757.94;;;17.75;64.27
51123;BME280;37162;41.724;13.346;2022-11-20T02:26:23;95734.22;;;17.62;64.47
51123;BME280;37162;41.724;13.346;2022-11-20T02:28:49;95755.22;;;17.70;64.50
51123;BME280;37162;41.724;13.346;2022-11-20T02:31:15;95746.28;;;17.59;64.45
51123;BME280;37162;41.724;13.346;2022-11-20T02:33:41;95764.41;;;17.74;64.48
51123;BME280;37162;41.724;13.346;2022-11-20T02:36:08;95755.47;;;17.69;64.28
51123;BME280;37162;41.724;13.346;2022-11-20T02:38:36;95755.75;;;17.72;64.38
51123;BME280;37162;41.724;13.346;2022-11-20T02:41:02;95760.31;;;17.72;64.27
51123;BME280;37162;41.724;13.346;2022-11-20T02:43:27;95711.31;;;17.44;64.37
51123;BME280;37162;41.724;13.346;2022-11-20T02:45:52;95736.13;;;17.67;64.49
51123;BME280;37162;41.724;13.346;2022-11-20T02:48:18;95730.22;;;17.65;64.32
51123;BME280;37162;41.724;13.346;2022-11-20T02:50:43;95723.75;;;17.60;64.43
51123;BME280;37162;41.724;13.346;2022-11-20T02:53:09;95734.53;;;17.71;64.22
51123;BME280;37162;41.724;13.346;2022-11-20T02:55:35;95707.31;;;17.52;64.20
51123;BME280;37162;41.724;13.346;2022-11-20T02:58:01;95738.28;;;17.70;63.97
51123;BME280;37162;41.724;13.346;2022-11-20T03:00:26;95703.25;;;17.44;64.05
51123;BME280;37162;41.724;13.346;2022-11-20T03:02:52;95734.22;;;17.62;63.85
51123;BME280;37162;41.724;13.346;2022-11-20T03:05:17;95724.56;;;17.61;64.03
51123;BME280;37162;41.724;13.346;2022-11-20T03:07:43;95736.66;;;17.69;63.97
51123;BME280;37162;41.724;13.346;2022-11-20T03:10:09;95730.47;;;17.68;63.85
51123;BME280;37162;41.724;13.346;2022-11-20T03:12:34;95719.41;;;17.54;64.14
51123;BME280;37162;41.724;13.346;2022-11-20T03:15:00;95716.47;;;17.56;64.12
51123;BME280;37162;41.724;13.346;2022-11-20T03:17:25;95725.88;;;17.63;63.93
51123;BME280;37162;41.724;13.346;2022-11-20T03:19:50;95730.75;;;17.67;64.20
51123;BME280;37162;41.724;13.346;2022-11-20T03:22:16;95717.00;;;17.53;63.90
51123;BME280;37162;41.724;13.346;2022-11-20T03:24:41;95717.50;;;17.50;63.98
51123;BME280;37162;41.724;13.346;2022-11-20T03:27:07;95737.44;;;17.64;64.00
51123;BME280;37162;41.724;13.346;2022-11-20T03:29:32;95731.00;;;17.60;63.99
51123;BME280;37162;41.724;13.346;2022-11-20T03:31:57;95737.72;;;17.68;64.23
51123;BME280;37162;41.724;13.346;2022-11-20T03:34:23;95707.03;;;17.48;64.31
51123;BME280;37162;41.724;13.346;2022-11-20T03:36:48;95732.34;;;17.68;64.23
51123;BME280;37162;41.724;13.346;2022-11-20T03:39:14;95736.41;;;17.65;64.33
51123;BME280;37162;41.724;13.346;2022-11-20T03:41:41;95727.78;;;17.63;64.19
51123;BME280;37162;41.724;13.346;2022-11-20T03:44:08;95733.16;;;17.68;64.25
51123;BME280;37162;41.724;13.346;2022-11-20T03:46:34;95726.75;;;17.69;64.06
51123;BME280;37162;41.724;13.346;2022-11-20T03:49:00;95725.09;;;17.68;63.97
51123;BME280;37162;41.724;13.346;2022-11-20T03:51:28;95718.38;;;17.60;64.03
51123;BME280;37162;41.724;13.346;2022-11-20T03:53:57;95704.38;;;17.53;63.90
51123;BME280;37162;41.724;13.346;2022-11-20T03:56:28;95730.22;;;17.70;64.08
51123;BME280;37162;41.724;13.346;2022-11-20T03:58:54;95721.09;;;17.66;63.81
51123;BME280;37162;41.724;13.346;2022-11-20T04:01:25;95732.13;;;17.69;64.02
51123;BME280;37162;41.724;13.346;2022-11-20T04:03:55;95702.78;;;17.57;64.05
51123;BME280;37162;41.724;13.346;2022-11-20T04:06:24;95720.53;;;17.69;63.83
51123;BME280;37162;41.724;13.346;2022-11-20T04:08:50;95727.78;;;17.68;63.86
51123;BME280;37162;41.724;13.346;2022-11-20T04:11:21;95679.34;;;17.43;64.12
51123;BME280;37162;41.724;13.346;2022-11-20T04:13:48;95711.38;;;17.59;63.78
51123;BME280;37162;41.724;13.346;2022-11-20T04:16:15;95698.44;;;17.46;63.75
51123;BME280;37162;41.724;13.346;2022-11-20T04:18:40;95725.09;;;17.68;63.58
51123;BME280;37162;41.724;13.346;2022-11-20T04:21:06;95676.09;;;17.41;63.98
51123;BME280;37162;41.724;13.346;2022-11-20T04:23:32;95724.31;;;17.68;64.24
51123;BME280;37162;41.724;13.346;2022-11-20T04:26:11;95719.50;;;17.70;64.11
51123;BME280;37162;41.724;13.346;2022-11-20T04:28:37;95705.97;;;17.54;63.96
51123;BME280;37162;41.724;13.346;2022-11-20T04:31:07;95735.03;;;17.68;63.83
51123;BME280;37162;41.724;13.346;2022-11-20T04:33:33;95725.06;;;17.58;63.88
51123;BME280;37162;41.724;13.346;2022-11-20T04:36:04;95738.28;;;17.65;63.76
51123;BME280;37162;41.724;13.346;2022-11-20T04:38:30;95726.69;;;17.64;63.97
51123;BME280;37162;41.724;13.346;2022-11-20T04:40:57;95740.41;;;17.68;63.79
51123;BME280;37162;41.724;13.346;2022-11-20T04:43:23;95710.53;;;17.54;63.91
51123;BME280;37162;41.724;13.346;2022-11-20T04:45:53;95721.84;;;17.56;63.77
51123;BME280;37162;41.724;13.346;2022-11-20T04:48:18;95718.88;;;17.57;63.71
51123;BME280;37162;41.724;13.346;2022-11-20T04:50:44;95714.56;;;17.51;63.64
51123;BME280;37162;41.724;13.346;2022-11-20T04:53:09;95722.09;;;17.54;63.84
51123;BME280;37162;41.724;13.346;2022-11-20T04:55:34;95718.59;;;17.54;63.82
51123;BME280;37162;41.724;13.346;2022-11-20T04:58:00;95704.63;;;17.47;63.95
51123;BME280;37162;41.724;13.346;2022-11-20T05:00:25;95733.44;;;17.67;63.85
51123;BME280;37162;41.724;13.346;2022-11-20T05:02:50;95722.09;;;17.59;63.86
51123;BME280;37162;41.724;13.346;2022-11-20T05:05:16;95724.28;;;17.62;64.00
51123;BME280;37162;41.724;13.346;2022-11-20T05:07:41;95724.56;;;17.66;63.80
51123;BME280;37162;41.724;13.346;2022-11-20T05:10:07;95722.41;;;17.63;63.84
51123;BME280;37162;41.724;13.346;2022-11-20T05:12:32;95714.03;;;17.54;63.76
51123;BME280;37162;41.724;13.346;2022-11-20T05:14:58;95710.53;;;17.54;63.91
51123;BME280;37162;41.724;13.346;2022-11-20T05:17:23;95727.25;;;17.66;63.90
51123;BME280;37162;41.724;13.346;2022-11-20T05:19:49;95700.06;;;17.52;63.95
51123;BME280;37162;41.724;13.346;2022-11-20T05:22:14;95718.09;;;17.62;63.83
51123;BME280;37162;41.724;13.346;2022-11-20T05:24:39;95725.34;;;17.61;63.79
51123;BME280;37162;41.724;13.346;2022-11-20T05:27:05;95706.25;;;17.53;63.70
51123;BME280;37162;41.724;13.346;2022-11-20T05:29:30;95678.78;;;17.35;63.64
51123;BME280;37162;41.724;13.346;2022-11-20T05:31:56;95711.91;;;17.56;63.63
51123;BME280;37162;41.724;13.346;2022-11-20T05:34:21;95716.50;;;17.61;63.68
51123;BME280;37162;41.724;13.346;2022-11-20T05:36:46;95710.31;;;17.55;63.86
51123;BME280;37162;41.724;13.346;2022-11-20T05:39:12;95721.06;;;17.60;63.67
51123;BME280;37162;41.724;13.346;2022-11-20T05:41:37;95718.63;;;17.59;63.38
51123;BME280;37162;41.724;13.346;2022-11-20T05:44:03;95716.50;;;17.61;63.51
51123;BME280;37162;41.724;13.346;2022-11-20T05:46:28;95719.19;;;17.61;63.51
51123;BME280;37162;41.724;13.346;2022-11-20T05:48:54;95725.34;;;17.61;63.48
51123;BME280;37162;41.724;13.346;2022-11-20T05:51:19;95728.03;;;17.61;63.44
51123;BME280;37162;41.724;13.346;2022-11-20T05:53:45;95732.84;;;17.59;63.29
51123;BME280;37162;41.724;13.346;2022-11-20T05:56:13;95739.06;;;17.60;63.54
51123;BME280;37162;41.724;13.346;2022-11-20T05:58:40;95743.59;;;17.59;63.69
51123;BME280;37162;41.724;13.346;2022-11-20T06:01:13;95741.19;;;17.58;63.79
51123;BME280;37162;41.724;13.346;2022-11-20T06:03:40;95743.34;;;17.56;63.74
51123;BME280;37162;41.724;13.346;2022-11-20T06:06:07;95741.16;;;17.53;63.96
51123;BME280;37162;41.724;13.346;2022-11-20T06:08:34;95743.84;;;17.53;63.98
51123;BME280;37162;41.724;13.346;2022-11-20T06:11:06;95755.13;;;17.55;63.68
51123;BME280;37162;41.724;13.346;2022-11-20T06:13:32;95751.88;;;17.48;63.41
51123;BME280;37162;41.724;13.346;2022-11-20T06:15:58;95748.66;;;17.46;63.54
51123;BME280;37162;41.724;13.346;2022-11-20T06:18:26;95768.53;;;17.55;63.35
51123;BME280;37162;41.724;13.346;2022-11-20T06:20:59;95769.63;;;17.54;63.24
51123;BME280;37162;41.724;13.346;2022-11-20T06:23:25;95738.91;;;17.34;63.35
51123;BME280;37162;41.724;13.346;2022-11-20T06:25:50;95766.69;;;17.50;63.34
51123;BME280;37162;41.724;13.346;2022-11-20T06:28:15;95763.44;;;17.53;63.44
51123;BME280;37162;41.724;13.346;2022-11-20T06:30:44;95768.81;;;17.53;63.48
51123;BME280;37162;41.724;13.346;2022-11-20T06:33:11;95764.22;;;17.49;63.33
51123;BME280;37162;41.724;13.346;2022-11-20T06:35:36;95771.22;;;17.50;63.31
51123;BME280;37162;41.724;13.346;2022-11-20T06:38:01;95773.66;;;17.51;63.46
51123;BME280;37162;41.724;13.346;2022-11-20T06:40:27;95779.84;;;17.52;63.26
51123;BME280;37162;41.724;13.346;2022-11-20T06:42:53;95761.53;;;17.44;63.46
51123;BME280;37162;41.724;13.346;2022-11-20T06:45:20;95778.25;;;17.56;63.27
51123;BME280;37162;41.724;13.346;2022-11-20T06:47:45;95745.34;;;17.33;63.06
51123;BME280;37162;41.724;13.346;2022-11-20T06:50:11;95788.72;;;17.57;63.31
51123;BME280;37162;41.724;13.346;2022-11-20T06:52:36;95793.28;;;17.57;63.33
51123;BME280;37162;41.724;13.346;2022-11-20T06:55:02;95791.41;;;17.57;63.12
51123;BME280;37162;41.724;13.346;2022-11-20T06:57:27;95739.66;;;17.25;62.99
51123;BME280;37162;41.724;13.346;2022-11-20T06:59:53;95782.28;;;17.58;63.28
51123;BME280;37162;41.724;13.346;2022-11-20T07:02:18;95777.47;;;17.60;63.32
51123;BME280;37162;41.724;13.346;2022-11-20T07:04:43;95758.91;;;17.59;63.04
51123;BME280;37162;41.724;13.346;2022-11-20T07:07:09;95736.88;;;17.52;62.79
51123;BME280;37162;41.724;13.346;2022-11-20T07:09:34;95751.97;;;17.68;62.74
51123;BME280;37162;41.724;13.346;2022-11-20T07:11:59;95750.66;;;17.71;62.72
51123;BME280;37162;41.724;13.346;2022-11-20T07:14:25;95721.84;;;17.56;62.52
51123;BME280;37162;41.724;13.346;2022-11-20T07:16:51;95758.22;;;17.74;62.36
51123;BME280;37162;41.724;13.346;2022-11-20T07:19:16;95767.63;;;17.76;62.61
51123;BME280;37162;41.724;13.346;2022-11-20T07:21:41;95781.88;;;17.82;62.51
51123;BME280;37162;41.724;13.346;2022-11-20T07:24:07;95791.53;;;17.83;62.60
51123;BME280;37162;41.724;13.346;2022-11-20T07:26:32;95791.53;;;17.78;62.19
51123;BME280;37162;41.724;13.346;2022-11-20T07:28:58;95816.31;;;17.90;62.15
51123;BME280;37162;41.724;13.346;2022-11-20T07:31:23;95792.06;;;17.75;62.13
51123;BME280;37162;41.724;13.346;2022-11-20T07:33:48;95820.09;;;17.94;61.68
51123;BME280;37162;41.724;13.346;2022-11-20T07:36:14;95825.75;;;17.98;61.54
51123;BME280;37162;41.724;13.346;2022-11-20T07:38:39;95823.34;;;18.01;61.49
51123;BME280;37162;41.724;13.346;2022-11-20T07:41:05;95832.47;;;18.00;61.50
51123;BME280;37162;41.724;13.346;2022-11-20T07:43:30;95832.25;;;18.07;61.44
51123;BME280;37162;41.724;13.346;2022-11-20T07:45:57;95835.22;;;18.10;61.43
51123;BME280;37162;41.724;13.346;2022-11-20T07:48:23;95839.78;;;18.15;61.14
51123;BME280;37162;41.724;13.346;2022-11-20T07:50:48;95834.72;;;18.19;61.08
51123;BME280;37162;41.724;13.346;2022-11-20T07:53:14;95839.28;;;18.23;61.10
51123;BME280;37162;41.724;13.346;2022-11-20T07:55:45;95837.97;;;18.26;60.56
51123;BME280;37162;41.724;13.346;2022-11-20T07:58:11;95841.72;;;18.30;60.11
51123;BME280;37162;41.724;13.346;2022-11-20T08:00:36;95841.47;;;18.31;59.02
51123;BME280;37162;41.724;13.346;2022-11-20T08:03:05;95854.94;;;18.36;58.40
51123;BME280;37162;41.724;13.346;2022-11-20T08:05:30;95856.84;;;18.41;58.38
51123;BME280;37162;41.724;13.346;2022-11-20T08:07:56;95853.09;;;18.47;58.23
51123;BME280;37162;41.724;13.346;2022-11-20T08:10:21;95845.56;;;18.49;58.00
51123;BME280;37162;41.724;13.346;2022-11-20T08:12:48;95835.34;;;18.46;57.90
51123;BME280;37162;41.724;13.346;2022-11-20T08:15:35;95829.44;;;18.49;57.91
51123;BME280;37162;41.724;13.346;2022-11-20T08:18:11;95824.31;;;18.48;58.13
51123;BME280;37162;41.724;13.346;2022-11-20T08:20:37;95825.66;;;18.45;58.78
51123;BME280;37162;41.724;13.346;2022-11-20T08:23:05;95812.72;;;18.42;59.63
51123;BME280;37162;41.724;13.346;2022-11-20T08:25:35;95815.94;;;18.39;59.61
51123;BME280;37162;41.724;13.346;2022-11-20T08:28:04;95819.69;;;18.33;59.60
51123;BME280;37162;41.724;13.346;2022-11-20T08:30:29;95810.81;;;18.32;60.29
51123;BME280;37162;41.724;13.346;2022-11-20T08:33:04;95815.13;;;18.28;60.36
51123;BME280;37162;41.724;13.346;2022-11-20T08:35:32;95815.09;;;18.23;60.64
51123;BME280;37162;41.724;13.346;2022-11-20T08:37:58;95822.06;;;18.19;60.67
51123;BME280;37162;41.724;13.346;2022-11-20T08:40:23;95830.13;;;18.14;61.17
51123;BME280;37162;41.724;13.346;2022-11-20T08:42:50;95829.81;;;18.10;61.29
51123;BME280;37162;41.724;13.346;2022-11-20T08:45:17;95836.56;;;18.08;61.17
51123;BME280;37162;41.724;13.346;2022-11-20T08:47:43;95838.69;;;18.06;61.73
51123;BME280;37162;41.724;13.346;2022-11-20T08:50:14;95832.97;;;17.92;61.09
51123;BME280;37162;41.724;13.346;2022-11-20T08:52:40;95849.97;;;17.98;61.55
51123;BME280;37162;41.724;13.346;2022-11-20T08:55:06;95855.03;;;17.94;61.39
51123;BME280;37162;41.724;13.346;2022-11-20T08:57:33;95856.34;;;17.92;61.62
51123;BME280;37162;41.724;13.346;2022-11-20T08:59:59;95862.00;;;17.90;61.75
51123;BME280;37162;41.724;13.346;2022-11-20T09:02:24;95866.84;;;17.88;61.64
51123;BME280;37162;41.724;13.346;2022-11-20T09:04:50;95866.28;;;17.86;61.51
51123;BME280;37162;41.724;13.346;2022-11-20T09:07:15;95876.47;;;17.84;61.67
51123;BME280;37162;41.724;13.346;2022-11-20T09:09:40;95882.91;;;17.83;61.88
51123;BME280;37162;41.724;13.346;2022-11-20T09:12:06;95877.78;;;17.81;62.00
51123;BME280;37162;41.724;13.346;2022-11-20T09:14:31;95873.50;;;17.80;61.94
51123;BME280;37162;41.724;13.346;2022-11-20T09:16:57;95873.78;;;17.79;62.16
51123;BME280;37162;41.724;13.346;2022-11-20T09:19:26;95881.00;;;17.78;62.07
51123;BME280;37162;41.724;13.346;2022-11-20T09:21:51;95872.66;;;17.75;62.19
51123;BME280;37162;41.724;13.346;2022-11-20T09:24:17;95874.56;;;17.79;62.27
51123;BME280;37162;41.724;13.346;2022-11-20T09:26:43;95864.88;;;17.78;62.18
51123;BME280;37162;41.724;13.346;2022-11-20T09:29:09;95855.75;;;17.79;62.17
51123;BME280;37162;41.724;13.346;2022-11-20T09:31:34;95858.78;;;17.88;62.12
51123;BME280;37162;41.724;13.346;2022-11-20T09:33:59;95858.53;;;17.95;62.17
51123;BME280;37162;41.724;13.346;2022-11-20T09:36:25;95855.88;;;18.00;62.13
51123;BME280;37162;41.724;13.346;2022-11-20T09:38:51;95857.50;;;18.06;61.97
51123;BME280;37162;41.724;13.346;2022-11-20T09:53:12;95809.50;;;18.40;61.37
51123;BME280;37162;41.724;13.346;2022-11-20T09:55:38;95810.06;;;18.47;61.65
51123;BME280;37162;41.724;13.346;2022-11-20T09:58:31;95808.97;;;18.53;61.47
51123;BME280;37162;41.724;13.346;2022-11-20T10:01:07;95811.94;;;18.57;61.38
51123;BME280;37162;41.724;13.346;2022-11-20T10:06:05;95814.63;;;18.52;60.88
51123;BME280;37162;41.724;13.346;2022-11-20T10:12:05;95827.81;;;18.53;60.33
51123;BME280;37162;41.724;13.346;2022-11-20T10:14:38;95829.44;;;18.49;60.55
51123;BME280;37162;41.724;13.346;2022-11-20T10:20:16;95828.59;;;18.38;60.76
51123;BME280;37162;41.724;13.346;2022-11-20T10:30:56;95810.81;;;18.22;61.64
51123;BME280;37162;41.724;13.346;2022-11-20T10:33:26;95812.41;;;18.18;61.73
51123;BME280;37162;41.724;13.346;2022-11-20T10:38:47;95794.88;;;18.10;61.80
51123;BME280;37162;41.724;13.346;2022-11-20T10:41:26;95782.53;;;18.09;61.98
51123;BME280;37162;41.724;13.346;2022-11-20T10:46:25;95779.03;;;18.04;62.12
51123;BME280;37162;41.724;13.346;2022-11-20T10:48:51;95771.44;;;17.96;62.06
51123;BME280;37162;41.724;13.346;2022-11-20T11:01:43;95765.78;;;17.92;62.06
51123;BME280;37162;41.724;13.346;2022-11-20T11:04:45;95785.47;;;17.98;62.74
51123;BME280;37162;41.724;13.346;2022-11-20T11:07:47;95774.94;;;17.96;62.52
51123;BME280;37162;41.724;13.346;2022-11-20T11:12:46;95765.00;;;17.97;62.25
51123;BME280;37162;41.724;13.346;2022-11-20T11:15:39;95773.06;;;17.97;62.24
51123;BME280;37162;41.724;13.346;2022-11-20T11:18:05;95776.03;;;17.95;62.14
51123;BME280;37162;41.724;13.346;2022-11-20T11:20:33;95771.72;;;17.89;62.37
51123;BME280;37162;41.724;13.346;2022-11-20T11:22:59;95777.63;;;17.96;62.21
51123;BME280;37162;41.724;13.346;2022-11-20T11:25:33;95771.44;;;17.96;62.49
51123;BME280;37162;41.724;13.346;2022-11-20T11:30:44;95781.13;;;17.97;62.24
51123;BME280;37162;41.724;13.346;2022-11-20T11:35:54;95773.63;;;17.94;62.53
51123;BME280;37162;41.724;13.346;2022-11-20T11:38:36;95773.63;;;17.94;62.55
51123;BME280;37162;41.724;13.346;2022-11-20T11:41:04;95771.16;;;17.92;62.22
51123;BME280;37162;41.724;13.346;2022-11-20T11:43:32;95754.22;;;17.86;62.59
51123;BME280;37162;41.724;13.346;2022-11-20T11:49:18;95767.94;;;17.90;62.54
51123;BME280;37162;41.724;13.346;2022-11-20T11:54:51;95767.41;;;17.88;62.66
51123;BME280;37162;41.724;13.346;2022-11-20T12:00:14;95755.31;;;17.91;62.56
51123;BME280;37162;41.724;13.346;2022-11-20T12:05:17;95759.09;;;17.95;62.42
51123;BME280;37162;41.724;13.346;2022-11-20T12:15:44;95763.13;;;17.97;62.58
51123;BME280;37162;41.724;13.346;2022-11-20T12:18:16;95758.81;;;17.96;62.42
51123;BME280;37162;41.724;13.346;2022-11-20T12:21:35;95768.78;;;17.96;62.50
51123;BME280;37162;41.724;13.346;2022-11-20T12:39:34;95711.78;;;17.88;62.64
51123;BME280;37162;41.724;13.346;2022-11-20T12:45:28;95715.53;;;17.87;62.62
51123;BME280;37162;41.724;13.346;2022-11-20T12:53:50;95707.75;;;17.86;62.90
51123;BME280;37162;41.724;13.346;2022-11-20T12:56:26;95701.56;;;17.85;63.22
51123;BME280;37162;41.724;13.346;2022-11-20T13:04:59;95694.81;;;17.83;62.99
51123;BME280;37162;41.724;13.346;2022-11-20T13:07:26;95700.47;;;17.81;63.14
51123;BME280;37162;41.724;13.346;2022-11-20T13:09:53;95683.25;;;17.77;62.87
51123;BME280;37162;41.724;13.346;2022-11-20T13:12:30;95689.72;;;17.81;62.97
51123;BME280;37162;41.724;13.346;2022-11-20T13:17:41;95696.19;;;17.80;62.93
51123;BME280;37162;41.724;13.346;2022-11-20T13:20:18;95700.75;;;17.80;62.79
51123;BME280;37162;41.724;13.346;2022-11-20T13:22:51;95695.09;;;17.76;63.03
51123;BME280;37162;41.724;13.346;2022-11-20T13:25:45;95701.81;;;17.79;63.01
51123;BME280;37162;41.724;13.346;2022-11-20T13:30:50;95692.66;;;17.75;63.22
51123;BME280;37162;41.724;13.346;2022-11-20T13:33:32;95698.56;;;17.77;63.17
51123;BME280;37162;41.724;13.346;2022-11-20T13:36:03;95701.53;;;17.75;63.15
51123;BME280;37162;41.724;13.346;2022-11-20T13:38:42;95691.06;;;17.74;63.34
51123;BME280;37162;41.724;13.346;2022-11-20T13:41:09;95691.88;;;17.74;63.31
51123;BME280;37162;41.724;13.346;2022-11-20T13:43:56;95683.50;;;17.71;63.43
51123;BME280;37162;41.724;13.346;2022-11-20T13:46:23;95693.47;;;17.75;63.33
51123;BME280;37162;41.724;13.346;2022-11-20T13:48:50;95692.66;;;17.75;63.59
51123;BME280;37162;41.724;13.346;2022-11-20T13:56:40;95680.53;;;17.72;63.46
51123;BME280;37162;41.724;13.346;2022-11-20T14:01:59;95696.66;;;17.72;63.49
51123;BME280;37162;41.724;13.346;2022-11-20T14:04:36;95688.59;;;17.72;63.56
51123;BME280;37162;41.724;13.346;2022-11-20T14:07:05;95683.22;;;17.72;63.41
51123;BME280;37162;41.724;13.346;2022-11-20T14:09:33;95679.72;;;17.72;63.74
51123;BME280;37162;41.724;13.346;2022-11-20T14:11:59;95687.78;;;17.72;63.41
51123;BME280;37162;41.724;13.346;2022-11-20T14:14:27;95686.69;;;17.68;63.51
51123;BME280;37162;41.724;13.346;2022-11-20T14:17:05;95682.69;;;17.70;63.51
51123;BME280;37162;41.724;13.346;2022-11-20T14:19:31;95668.44;;;17.65;63.53
51123;BME280;37162;41.724;13.346;2022-11-20T14:22:17;95680.00;;;17.70;63.48
51123;BME280;37162;41.724;13.346;2022-11-20T14:24:44;95680.00;;;17.70;63.79
51123;BME280;37162;41.724;13.346;2022-11-20T14:27:15;95675.72;;;17.69;63.65
51123;BME280;37162;41.724;13.346;2022-11-20T14:29:42;95671.38;;;17.68;63.78
51123;BME280;37162;41.724;13.346;2022-11-20T14:32:09;95675.72;;;17.69;63.58
51123;BME280;37162;41.724;13.346;2022-11-20T14:34:39;95668.44;;;17.70;63.78
51123;BME280;37162;41.724;13.346;2022-11-20T14:37:11;95673.03;;;17.69;63.61
51123;BME280;37162;41.724;13.346;2022-11-20T14:39:41;95674.06;;;17.68;63.75
51123;BME280;37162;41.724;13.346;2022-11-20T14:42:22;95678.41;;;17.69;63.81
51123;BME280;37162;41.724;13.346;2022-11-20T14:44:49;95682.69;;;17.70;63.76
51123;BME280;37162;41.724;13.346;2022-11-20T14:47:19;95685.38;;;17.70;63.82
51123;BME280;37162;41.724;13.346;2022-11-20T14:49:45;95680.22;;;17.63;63.83
51123;BME280;37162;41.724;13.346;2022-11-20T14:52:15;95682.13;;;17.68;63.91
51123;BME280;37162;41.724;13.346;2022-11-20T14:54:49;95682.13;;;17.68;63.57
51123;BME280;37162;41.724;13.346;2022-11-20T14:57:27;95693.69;;;17.69;63.70
51123;BME280;37162;41.724;13.346;2022-11-20T15:02:48;95672.44;;;17.62;63.54
51123;BME280;37162;41.724;13.346;2022-11-20T15:05:15;95689.13;;;17.69;63.63